createdAt,value
2023-03-31T00:00:31.836Z,100140.00
2023-03-31T00:03:19.504Z,100128.00
2023-03-31T00:05:57.106Z,100126.00
2023-03-31T00:08:38.747Z,100123.00
2023-03-31T00:11:13.710Z,100115.00
2023-03-31T00:13:44.456Z,100125.00
2023-03-31T00:16:41.771Z,100125.00
2023-03-31T00:19:18.343Z,100105.00
2023-03-31T00:22:07.795Z,100096.00
2023-03-31T00:25:22.835Z,100099.00
2023-03-31T00:28:24.628Z,100084.00
2023-03-31T00:31:05.450Z,100087.00
2023-03-31T00:33:43.445Z,100093.00
2023-03-31T00:36:21.579Z,100081.00
2023-03-31T00:42:27.797Z,100055.00
2023-03-31T00:48:59.860Z,100054.00
2023-03-31T00:55:28.991Z,100032.00
2023-03-31T01:01:37.953Z,99997.00
2023-03-31T01:04:33.819Z,99997.00
2023-03-31T01:08:09.151Z,99991.00
2023-03-31T01:11:23.494Z,99987.00
2023-03-31T01:24:06.892Z,99973.00
2023-03-31T01:31:11.750Z,99951.00
2023-03-31T01:38:06.009Z,99945.00
2023-03-31T01:48:49.699Z,99916.00
2023-03-31T01:52:52.808Z,99925.00
2023-03-31T01:56:08.687Z,99907.00
2023-03-31T02:00:04.247Z,99905.00
2023-03-31T02:10:33.807Z,99884.00
2023-03-31T02:13:38.694Z,99874.00
2023-03-31T02:17:27.445Z,99859.00
2023-03-31T02:24:23.152Z,99832.00
2023-03-31T02:27:38.789Z,99824.00
2023-03-31T02:39:42.101Z,99762.00
2023-03-31T02:43:05.733Z,99744.00
2023-03-31T02:45:57.244Z,99772.00
2023-03-31T02:49:26.488Z,99740.00
2023-03-31T02:52:30.579Z,99748.00
2023-03-31T02:55:40.172Z,99745.00
2023-03-31T02:59:19.484Z,99709.00
2023-03-31T03:02:51.765Z,99712.00
2023-03-31T03:09:51.962Z,99684.00
2023-03-31T03:13:21.687Z,99666.00
2023-03-31T03:17:02.502Z,99666.00
2023-03-31T03:23:24.908Z,99634.00
2023-03-31T03:25:59.936Z,99647.00
2023-03-31T03:31:42.871Z,99652.00
2023-03-31T03:37:30.451Z,99639.00
2023-03-31T03:39:58.101Z,99636.00
2023-03-31T03:55:19.385Z,99590.00
2023-03-31T03:58:12.566Z,99572.00
2023-03-31T04:01:36.501Z,99570.00
2023-03-31T04:04:48.662Z,99561.00
2023-03-31T04:11:37.430Z,99530.00
2023-03-31T04:40:50.883Z,99465.00
2023-03-31T04:43:33.180Z,99453.00
2023-03-31T04:46:08.833Z,99464.00
2023-03-31T04:48:58.939Z,99446.00
2023-03-31T04:51:29.290Z,99439.00
2023-03-31T05:02:25.501Z,99421.00
2023-03-31T05:05:07.783Z,99412.00
2023-03-31T05:07:35.050Z,99391.00
2023-03-31T05:10:02.430Z,99403.00
2023-03-31T05:19:02.382Z,99382.00
2023-03-31T05:22:07.644Z,99375.00
2023-03-31T05:29:04.047Z,99380.00
2023-03-31T05:31:47.569Z,99360.00
2023-03-31T05:34:27.398Z,99359.00
2023-03-31T05:37:13.487Z,99363.00
2023-03-31T05:40:09.529Z,99365.00
2023-03-31T05:43:08.936Z,99354.00
2023-03-31T05:45:52.435Z,99340.00
2023-03-31T05:48:20.149Z,99341.00
2023-03-31T05:50:53.627Z,99337.00
2023-03-31T05:53:59.847Z,99352.00
2023-03-31T05:56:28.384Z,99347.00
2023-03-31T05:59:05.268Z,99336.00
2023-03-31T06:01:42.628Z,99324.00
2023-03-31T06:04:10.388Z,99337.00
2023-03-31T06:06:38.281Z,99328.00
2023-03-31T06:09:19.445Z,99318.00
2023-03-31T06:12:02.204Z,99328.00
2023-03-31T06:14:32.856Z,99308.00
2023-03-31T06:17:19.557Z,99308.00
2023-03-31T06:20:26.392Z,99314.00
2023-03-31T06:23:08.682Z,99309.00
2023-03-31T06:25:50.779Z,99292.00
2023-03-31T06:28:26.913Z,99298.00
2023-03-31T06:31:15.978Z,99295.00
2023-03-31T06:34:23.251Z,99304.00
2023-03-31T06:37:15.364Z,99291.00
2023-03-31T06:46:30.701Z,99286.00
2023-03-31T06:49:27.300Z,99274.00
2023-03-31T06:51:54.664Z,99283.00
2023-03-31T06:54:59.588Z,99283.00
2023-03-31T06:57:41.600Z,99263.00
2023-03-31T07:01:03.361Z,99271.00
2023-03-31T07:03:40.915Z,99274.00
2023-03-31T07:06:24.524Z,99260.00
2023-03-31T07:12:12.643Z,99266.00
2023-03-31T07:15:25.620Z,99254.00
2023-03-31T07:17:55.358Z,99244.00
2023-03-31T07:20:44.499Z,99250.00
2023-03-31T07:26:50.469Z,99237.00
2023-03-31T07:29:30.632Z,99235.00
2023-03-31T07:32:47.774Z,99231.00
2023-03-31T07:36:16.770Z,99229.00
2023-03-31T07:39:11.494Z,99245.00
2023-03-31T07:41:44.947Z,99246.00
2023-03-31T07:44:27.293Z,99221.00
2023-03-31T07:52:58.939Z,99234.00
2023-03-31T08:01:58.691Z,99226.00
2023-03-31T08:10:32.259Z,99212.00
2023-03-31T08:13:08.581Z,99214.00
2023-03-31T08:15:57.464Z,99197.00
2023-03-31T08:18:34.079Z,99209.00
2023-03-31T08:21:24.621Z,99205.00
2023-03-31T08:24:07.545Z,99204.00
2023-03-31T08:26:59.462Z,99209.00
2023-03-31T08:29:33.635Z,99206.00
2023-03-31T08:35:18.287Z,99190.00
2023-03-31T08:37:50.141Z,99208.00
2023-03-31T08:40:38.005Z,99199.00
2023-03-31T08:43:43.282Z,99206.00
2023-03-31T08:46:23.953Z,99202.00
2023-03-31T08:49:13.647Z,99187.00
2023-03-31T08:52:04.000Z,99187.00
2023-03-31T08:54:57.407Z,99184.00
2023-03-31T08:57:48.790Z,99189.00
2023-03-31T09:00:47.457Z,99174.00
2023-03-31T09:04:17.983Z,99185.00
2023-03-31T09:07:35.820Z,99167.00
2023-03-31T09:10:46.573Z,99166.00
2023-03-31T09:13:54.930Z,99177.00
2023-03-31T09:16:47.312Z,99163.00
2023-03-31T09:19:28.296Z,99172.00
2023-03-31T09:22:02.751Z,99156.00
2023-03-31T09:24:43.886Z,99178.00
2023-03-31T09:27:35.679Z,99165.00
2023-03-31T09:30:28.992Z,99165.00
2023-03-31T09:33:37.055Z,99163.00
2023-03-31T09:36:24.454Z,99176.00
2023-03-31T09:38:52.871Z,99160.00
2023-03-31T09:41:22.205Z,99152.00
2023-03-31T09:43:51.568Z,99164.00
2023-03-31T09:46:27.779Z,99149.00
2023-03-31T09:49:21.371Z,99162.00
2023-03-31T09:52:02.622Z,99147.00
2023-03-31T09:54:41.188Z,99148.00
2023-03-31T09:57:28.611Z,99145.00
2023-03-31T10:00:21.549Z,99140.00
2023-03-31T10:02:56.067Z,99142.00
2023-03-31T10:05:32.943Z,99137.00
2023-03-31T10:08:21.189Z,99136.00
2023-03-31T10:11:04.036Z,99156.00
2023-03-31T10:13:59.138Z,99152.00
2023-03-31T10:16:33.391Z,99152.00
2023-03-31T10:19:35.298Z,99154.00
2023-03-31T10:22:20.680Z,99164.00
2023-03-31T10:24:52.288Z,99155.00
2023-03-31T10:27:30.914Z,99153.00
2023-03-31T10:30:02.243Z,99150.00
2023-03-31T10:32:42.124Z,99150.00
2023-03-31T10:35:38.400Z,99148.00
2023-03-31T10:38:15.240Z,99143.00
2023-03-31T10:40:57.536Z,99137.00
2023-03-31T10:43:41.896Z,99140.00
2023-03-31T10:46:11.099Z,99140.00
2023-03-31T10:48:44.807Z,99129.00
2023-03-31T10:51:31.776Z,99120.00
2023-03-31T10:54:06.605Z,99125.00
2023-03-31T10:56:42.614Z,99128.00
2023-03-31T10:59:45.102Z,99118.00
2023-03-31T11:03:08.897Z,99122.00
2023-03-31T11:06:03.998Z,99107.00
2023-03-31T11:08:44.463Z,99109.00
2023-03-31T11:11:49.758Z,99108.00
2023-03-31T11:14:25.743Z,99109.00
2023-03-31T11:17:58.699Z,99098.00
2023-03-31T11:20:51.761Z,99107.00
2023-03-31T11:23:42.494Z,99087.00
2023-03-31T11:26:28.310Z,99087.00
2023-03-31T11:29:26.739Z,99083.00
2023-03-31T11:32:28.811Z,99088.00
2023-03-31T11:35:33.430Z,99077.00
2023-03-31T11:38:54.057Z,99086.00
2023-03-31T11:41:43.220Z,99087.00
2023-03-31T11:44:15.605Z,99096.00
2023-03-31T11:47:01.347Z,99094.00
2023-03-31T11:49:39.048Z,99085.00
2023-03-31T11:52:22.163Z,99085.00
2023-03-31T11:55:16.691Z,99081.00
2023-03-31T11:58:31.988Z,99086.00
2023-03-31T12:01:27.100Z,99088.00
2023-03-31T12:04:30.970Z,99085.00
2023-03-31T12:07:27.147Z,99073.00
2023-03-31T12:10:23.830Z,99068.00
2023-03-31T12:13:22.333Z,99065.00
2023-03-31T12:16:14.478Z,99069.00
2023-03-31T12:19:16.316Z,99040.00
2023-03-31T12:22:04.416Z,99037.00
2023-03-31T12:24:33.639Z,99039.00
2023-03-31T12:27:16.434Z,99048.00
2023-03-31T12:30:07.703Z,99040.00
2023-03-31T12:32:43.665Z,99032.00
2023-03-31T12:35:50.865Z,99036.00
2023-03-31T12:38:39.658Z,99031.00
2023-03-31T12:41:40.556Z,99013.00
2023-03-31T12:44:13.599Z,99035.00
2023-03-31T12:47:14.306Z,99021.00
2023-03-31T12:50:16.927Z,99023.00
2023-03-31T12:53:08.368Z,99021.00
2023-03-31T12:55:46.140Z,99029.00
2023-03-31T12:58:27.909Z,99016.00
2023-03-31T13:01:11.902Z,99016.00
2023-03-31T13:04:12.348Z,99005.00
2023-03-31T13:06:39.488Z,99009.00
2023-03-31T13:09:43.692Z,98981.00
2023-03-31T13:12:21.586Z,98985.00
2023-03-31T13:14:54.496Z,98985.00
2023-03-31T13:17:37.030Z,98992.00
2023-03-31T13:20:37.883Z,98994.00
2023-03-31T13:23:12.211Z,98992.00
2023-03-31T13:25:50.260Z,98998.00
2023-03-31T13:28:42.701Z,98983.00
2023-03-31T13:31:16.269Z,98967.00
2023-03-31T13:33:59.214Z,98980.00
2023-03-31T13:37:19.262Z,98967.00
2023-03-31T13:40:09.004Z,98970.00
2023-03-31T13:43:36.976Z,98968.00
2023-03-31T13:46:26.718Z,98990.00
2023-03-31T13:49:39.454Z,99007.00
2023-03-31T13:52:14.749Z,99007.00
2023-03-31T13:55:30.011Z,99014.00
2023-03-31T13:59:15.386Z,99019.00
2023-03-31T14:01:51.029Z,99008.00
2023-03-31T14:04:51.734Z,98999.00
2023-03-31T14:07:32.838Z,99014.00
2023-03-31T14:10:00.643Z,98996.00
2023-03-31T14:12:38.136Z,99012.00
2023-03-31T14:15:07.644Z,99005.00
2023-03-31T14:17:47.111Z,99014.00
2023-03-31T14:20:49.164Z,99015.00
2023-03-31T14:23:50.136Z,99007.00
2023-03-31T14:27:18.988Z,99001.00
2023-03-31T14:30:18.956Z,98988.00
2023-03-31T14:33:29.727Z,98989.00
2023-03-31T14:36:39.293Z,98999.00
2023-03-31T14:39:12.320Z,98973.00
2023-03-31T14:41:40.686Z,98990.00
2023-03-31T14:44:18.375Z,98987.00
2023-03-31T14:46:51.437Z,98958.00
2023-03-31T14:49:35.321Z,98971.00
2023-03-31T14:52:25.432Z,98967.00
2023-03-31T14:54:53.992Z,98973.00
2023-03-31T14:57:35.549Z,98968.00
2023-03-31T15:00:08.720Z,98957.00
2023-03-31T15:02:44.610Z,98965.00
2023-03-31T15:05:39.175Z,98958.00
2023-03-31T15:08:14.599Z,98963.00
2023-03-31T15:10:58.938Z,98951.00
2023-03-31T15:13:42.555Z,98955.00
2023-03-31T15:16:45.331Z,98963.00
2023-03-31T15:19:19.944Z,98949.00
2023-03-31T15:22:02.203Z,98947.00
2023-03-31T15:24:31.363Z,98946.00
2023-03-31T15:27:20.487Z,98947.00
2023-03-31T15:29:56.517Z,98946.00
2023-03-31T15:32:29.710Z,98949.00
2023-03-31T15:35:07.785Z,98944.00
2023-03-31T15:37:44.388Z,98938.00
2023-03-31T15:40:32.820Z,98950.00
2023-03-31T15:45:54.584Z,98970.00
2023-03-31T15:48:51.387Z,98965.00
2023-03-31T15:51:34.004Z,98952.00
2023-03-31T15:54:02.070Z,98947.00
2023-03-31T15:56:42.757Z,98962.00
2023-03-31T15:59:41.640Z,98963.00
2023-03-31T16:02:22.553Z,98975.00
2023-03-31T16:04:59.434Z,98961.00
2023-03-31T16:07:34.964Z,98964.00
2023-03-31T16:10:19.097Z,98971.00
2023-03-31T16:13:12.707Z,98971.00
2023-03-31T16:15:51.855Z,98974.00
2023-03-31T16:18:33.331Z,98964.00
2023-03-31T16:21:05.635Z,98965.00
2023-03-31T16:23:41.633Z,98962.00
2023-03-31T16:26:09.453Z,98952.00
2023-03-31T16:28:38.628Z,98951.00
2023-03-31T16:31:52.513Z,98953.00
2023-03-31T16:34:20.098Z,98967.00
2023-03-31T16:36:47.771Z,98951.00
2023-03-31T16:39:15.488Z,98963.00
2023-03-31T16:41:42.894Z,98957.00
2023-03-31T16:44:10.248Z,98963.00
2023-03-31T16:46:40.927Z,98956.00
2023-03-31T16:49:08.390Z,98954.00
2023-03-31T16:51:35.644Z,98964.00
2023-03-31T16:54:03.021Z,98967.00
2023-03-31T16:56:30.731Z,98951.00
2023-03-31T16:58:58.306Z,98962.00
2023-03-31T17:01:25.689Z,98961.00
2023-03-31T17:03:53.196Z,98960.00
2023-03-31T17:06:20.766Z,98939.00
2023-03-31T17:08:48.507Z,98943.00
2023-03-31T17:11:16.191Z,98944.00
2023-03-31T17:13:45.098Z,98950.00
2023-03-31T17:16:22.014Z,98944.00
2023-03-31T17:18:54.778Z,98958.00
2023-03-31T17:21:22.258Z,98959.00
2023-03-31T17:23:50.143Z,98946.00
2023-03-31T17:26:18.250Z,98957.00
2023-03-31T17:28:47.751Z,98944.00
2023-03-31T17:31:22.067Z,98938.00
2023-03-31T17:33:50.070Z,98953.00
2023-03-31T17:36:21.054Z,98933.00
2023-03-31T17:38:48.519Z,98928.00
2023-03-31T17:41:18.782Z,98945.00
2023-03-31T17:43:50.631Z,98944.00
2023-03-31T17:46:21.269Z,98943.00
2023-03-31T17:48:49.034Z,98937.00
2023-03-31T17:51:19.567Z,98934.00
2023-03-31T17:53:48.472Z,98938.00
2023-03-31T17:56:17.725Z,98938.00
2023-03-31T17:58:47.215Z,98924.00
2023-03-31T18:01:16.092Z,98933.00
2023-03-31T18:03:45.348Z,98933.00
2023-03-31T18:06:20.716Z,98930.00
2023-03-31T18:08:48.733Z,98936.00
2023-03-31T18:11:16.576Z,98931.00
2023-03-31T18:13:44.945Z,98941.00
2023-03-31T18:16:13.711Z,98940.00
2023-03-31T18:18:42.838Z,98929.00
2023-03-31T18:21:13.705Z,98938.00
2023-03-31T18:23:42.162Z,98928.00
2023-03-31T18:26:13.863Z,98933.00
2023-03-31T18:28:41.377Z,98924.00
2023-03-31T18:31:10.311Z,98939.00
2023-03-31T18:33:39.133Z,98937.00
2023-03-31T18:36:08.634Z,98943.00
2023-03-31T18:38:37.444Z,98936.00
2023-03-31T18:41:05.161Z,98927.00
2023-03-31T18:43:33.434Z,98935.00
2023-03-31T18:46:01.961Z,98937.00
2023-03-31T18:48:29.650Z,98931.00
2023-03-31T18:50:57.810Z,98936.00
2023-03-31T18:53:25.594Z,98928.00
2023-03-31T18:55:58.291Z,98930.00
2023-03-31T18:58:32.484Z,98947.00
2023-03-31T19:01:01.820Z,98936.00
2023-03-31T19:03:32.299Z,98955.00
2023-03-31T19:06:12.753Z,98954.00
2023-03-31T19:08:45.150Z,98936.00
2023-03-31T19:11:17.414Z,98950.00
2023-03-31T19:13:45.839Z,98947.00
2023-03-31T19:16:15.875Z,98944.00
2023-03-31T19:18:43.809Z,98941.00
2023-03-31T19:21:11.983Z,98962.00
2023-03-31T19:23:40.457Z,98946.00
2023-03-31T19:26:08.898Z,98954.00
2023-03-31T19:28:39.771Z,98949.00
2023-03-31T19:31:07.844Z,98950.00
2023-03-31T19:33:35.771Z,98949.00
2023-03-31T19:36:03.196Z,98951.00
2023-03-31T19:38:32.629Z,98949.00
2023-03-31T19:41:03.553Z,98945.00
2023-03-31T19:43:33.596Z,98953.00
2023-03-31T19:46:01.749Z,98939.00
2023-03-31T19:48:48.216Z,98940.00
2023-03-31T19:51:16.104Z,98950.00
2023-03-31T19:53:46.938Z,98950.00
2023-03-31T19:56:18.299Z,98939.00
2023-03-31T19:58:46.311Z,98953.00
2023-03-31T20:01:26.398Z,98947.00
2023-03-31T20:03:54.895Z,98947.00
2023-03-31T20:06:30.012Z,98942.00
2023-03-31T20:09:02.165Z,98954.00
2023-03-31T20:11:31.282Z,98952.00
2023-03-31T20:13:59.585Z,98952.00
2023-03-31T20:16:30.105Z,98946.00
2023-03-31T20:19:04.759Z,98937.00
2023-03-31T20:21:35.768Z,98947.00
2023-03-31T20:24:03.725Z,98930.00
2023-03-31T20:26:34.124Z,98941.00
2023-03-31T20:29:04.044Z,98936.00
2023-03-31T20:31:36.805Z,98940.00
2023-03-31T20:34:06.501Z,98941.00
2023-03-31T20:36:34.010Z,98942.00
2023-03-31T20:39:04.437Z,98935.00
2023-03-31T20:42:06.510Z,98922.00
2023-03-31T20:44:33.917Z,98931.00
2023-03-31T20:47:01.841Z,98926.00
2023-03-31T20:49:29.655Z,98937.00
2023-03-31T20:51:57.243Z,98935.00
2023-03-31T20:54:26.463Z,98941.00
2023-03-31T20:56:53.934Z,98939.00
2023-03-31T20:59:23.348Z,98924.00
2023-03-31T21:01:50.855Z,98936.00
2023-03-31T21:04:18.540Z,98934.00
2023-03-31T21:06:48.021Z,98937.00
2023-03-31T21:09:17.032Z,98932.00
2023-03-31T21:11:44.599Z,98934.00
2023-03-31T21:14:15.252Z,98930.00
2023-03-31T21:16:43.230Z,98926.00
2023-03-31T21:19:11.281Z,98941.00
2023-03-31T21:21:41.559Z,98937.00
2023-03-31T21:24:12.715Z,98944.00
2023-03-31T21:26:40.763Z,98927.00
2023-03-31T21:29:08.793Z,98945.00
2023-03-31T21:31:36.682Z,98929.00
2023-03-31T21:34:05.532Z,98935.00
2023-03-31T21:36:35.357Z,98931.00
2023-03-31T21:39:06.679Z,98924.00
2023-03-31T21:42:30.496Z,98934.00
2023-03-31T21:45:01.527Z,98929.00
2023-03-31T21:47:30.196Z,98924.00
2023-03-31T21:50:21.017Z,98913.00
2023-03-31T21:52:48.927Z,98923.00
2023-03-31T21:55:16.898Z,98908.00
2023-03-31T21:57:44.788Z,98912.00
2023-03-31T22:00:16.184Z,98926.00
2023-03-31T22:02:43.825Z,98913.00
2023-03-31T22:05:11.645Z,98925.00
2023-03-31T22:07:43.294Z,98914.00
2023-03-31T22:10:15.140Z,98925.00
2023-03-31T22:12:47.059Z,98914.00
2023-03-31T22:15:20.436Z,98926.00
2023-03-31T22:17:49.524Z,98914.00
2023-03-31T22:20:17.131Z,98934.00
2023-03-31T22:22:55.309Z,98916.00
2023-03-31T22:25:30.236Z,98916.00
2023-03-31T22:28:00.989Z,98919.00
2023-03-31T22:30:37.969Z,98933.00
2023-03-31T22:33:15.723Z,98907.00
2023-03-31T22:35:48.290Z,98916.00
2023-03-31T22:38:34.134Z,98931.00
2023-03-31T22:41:08.218Z,98918.00
2023-03-31T22:43:36.133Z,98921.00
2023-03-31T22:46:08.509Z,98936.00
2023-03-31T22:48:36.340Z,98924.00
2023-03-31T22:51:13.831Z,98916.00
2023-03-31T22:53:41.817Z,98920.00
2023-03-31T22:56:12.556Z,98919.00
2023-03-31T22:58:40.526Z,98919.00
2023-03-31T23:01:10.650Z,98906.00
2023-03-31T23:03:39.407Z,98925.00
2023-03-31T23:06:07.925Z,98928.00
2023-03-31T23:08:40.611Z,98909.00
2023-03-31T23:11:12.878Z,98917.00
2023-03-31T23:13:42.440Z,98923.00
2023-03-31T23:16:19.167Z,98918.00
2023-03-31T23:18:47.843Z,98922.00
2023-03-31T23:21:19.791Z,98913.00
2023-03-31T23:23:47.865Z,98907.00
2023-03-31T23:26:16.214Z,98916.00
2023-03-31T23:28:44.311Z,98915.00
2023-03-31T23:31:15.568Z,98915.00
2023-03-31T23:33:43.736Z,98911.00
2023-03-31T23:36:17.362Z,98901.00
2023-03-31T23:38:50.819Z,98918.00
2023-03-31T23:41:28.478Z,98906.00
2023-03-31T23:44:02.155Z,98906.00
2023-03-31T23:46:29.924Z,98914.00
2023-03-31T23:48:57.615Z,98912.00
2023-03-31T23:51:26.861Z,98908.00
2023-03-31T23:53:55.108Z,98896.00
2023-03-31T23:56:25.075Z,98907.00
2023-03-31T23:58:55.224Z,98899.00
